createdAt,value
2023-03-19T02:58:26.464Z,95.44
2023-03-19T03:00:53.887Z,95.49
2023-03-19T03:03:21.637Z,94.90
2023-03-19T03:05:48.692Z,94.99
2023-03-19T03:08:15.871Z,94.73
2023-03-19T03:10:42.942Z,94.57
2023-03-19T03:13:10.183Z,94.59
2023-03-19T03:15:37.548Z,95.29
2023-03-19T03:18:06.068Z,95.26
2023-03-19T03:20:33.625Z,95.45
2023-03-19T03:23:01.019Z,94.61
2023-03-19T03:25:28.424Z,94.42
2023-03-19T03:27:55.513Z,95.37
2023-03-19T03:30:23.193Z,94.35
2023-03-19T03:32:50.328Z,95.04
2023-03-19T03:35:22.016Z,94.34
2023-03-19T03:37:50.414Z,94.66
2023-03-19T03:40:17.751Z,94.24
2023-03-19T03:42:45.510Z,95.38
2023-03-19T03:45:13.018Z,94.42
2023-03-19T03:47:42.314Z,94.93
2023-03-19T03:50:11.155Z,95.00
2023-03-19T03:52:39.873Z,94.96
2023-03-19T03:55:07.812Z,94.47
2023-03-19T03:57:35.177Z,95.36
2023-03-19T04:00:02.470Z,94.63
2023-03-19T04:02:40.866Z,94.30
2023-03-19T04:05:10.594Z,93.83
2023-03-19T04:07:37.983Z,95.14
2023-03-19T04:10:05.922Z,93.59
2023-03-19T04:12:32.922Z,94.78
2023-03-19T04:15:00.054Z,93.82
2023-03-19T04:17:27.270Z,93.68
2023-03-19T04:19:54.167Z,94.68
2023-03-19T04:22:21.122Z,94.48
2023-03-19T04:24:48.179Z,93.94
2023-03-19T04:27:15.230Z,94.35
2023-03-19T04:29:42.166Z,94.24
2023-03-19T04:32:09.703Z,93.19
2023-03-19T04:34:37.421Z,93.48
2023-03-19T04:37:04.794Z,93.12
2023-03-19T04:39:34.730Z,93.73
2023-03-19T04:42:01.646Z,94.46
2023-03-19T04:44:35.366Z,93.80
2023-03-19T04:47:02.436Z,93.07
2023-03-19T04:49:36.524Z,92.89
2023-03-19T04:52:04.115Z,94.08
2023-03-19T04:54:31.119Z,94.24
2023-03-19T04:56:58.304Z,93.71
2023-03-19T04:59:29.399Z,93.78
2023-03-19T05:01:56.977Z,93.78
2023-03-19T05:04:25.247Z,93.09
2023-03-19T05:06:55.312Z,93.92
2023-03-19T05:09:22.291Z,94.09
2023-03-19T05:11:49.287Z,93.01
2023-03-19T05:14:19.901Z,93.04
2023-03-19T05:16:59.039Z,93.10
2023-03-19T05:19:29.708Z,92.92
2023-03-19T05:21:57.291Z,93.53
2023-03-19T05:24:25.389Z,92.78
2023-03-19T05:26:53.512Z,93.64
2023-03-19T05:29:34.809Z,93.80
2023-03-19T05:32:37.606Z,92.77
2023-03-19T05:35:07.329Z,93.24
2023-03-19T05:37:36.552Z,93.75
2023-03-19T05:40:03.941Z,92.60
2023-03-19T05:42:31.392Z,93.68
2023-03-19T05:44:59.495Z,92.71
2023-03-19T05:47:28.711Z,92.93
2023-03-19T05:49:58.237Z,92.60
2023-03-19T05:52:25.666Z,93.15
2023-03-19T05:54:56.011Z,92.49
2023-03-19T05:57:37.202Z,92.54
2023-03-19T06:00:10.633Z,93.00
2023-03-19T06:02:38.035Z,92.69
2023-03-19T06:05:21.338Z,92.88
2023-03-19T06:07:48.933Z,92.81
2023-03-19T06:10:25.923Z,93.45
2023-03-19T06:12:55.379Z,93.16
2023-03-19T06:15:38.931Z,92.80
2023-03-19T06:18:14.763Z,92.67
2023-03-19T06:20:42.187Z,92.18
2023-03-19T06:23:09.392Z,92.30
2023-03-19T06:25:36.770Z,92.94
2023-03-19T06:28:05.281Z,92.67
2023-03-19T06:30:37.151Z,93.57
2023-03-19T06:33:10.197Z,92.26
2023-03-19T06:35:37.153Z,92.14
2023-03-19T06:38:04.132Z,93.13
2023-03-19T06:40:31.456Z,93.10
2023-03-19T06:42:58.453Z,93.58
2023-03-19T06:45:25.486Z,93.38
2023-03-19T06:47:53.651Z,92.59
2023-03-19T06:50:21.493Z,92.61
2023-03-19T06:52:48.321Z,93.08
2023-03-19T06:55:15.783Z,93.00
2023-03-19T06:57:42.638Z,92.75
2023-03-19T07:00:11.753Z,93.32
2023-03-19T07:02:38.962Z,92.57
2023-03-19T07:05:06.601Z,93.08
2023-03-19T07:07:35.006Z,92.88
2023-03-19T07:10:02.174Z,93.43
2023-03-19T07:12:29.036Z,93.23
2023-03-19T07:14:59.094Z,93.79
2023-03-19T07:17:27.077Z,92.51
2023-03-19T07:19:54.078Z,92.40
2023-03-19T07:22:21.777Z,93.46
2023-03-19T07:24:48.978Z,92.86
2023-03-19T07:27:16.550Z,92.99
2023-03-19T07:29:43.457Z,92.51
2023-03-19T07:32:11.421Z,93.52
2023-03-19T07:34:38.506Z,93.14
2023-03-19T07:37:05.498Z,93.76
2023-03-19T07:39:32.623Z,93.46
2023-03-19T07:41:59.670Z,92.66
2023-03-19T07:44:26.513Z,93.03
2023-03-19T07:46:53.527Z,93.60
2023-03-19T07:49:20.547Z,93.47
2023-03-19T07:51:47.451Z,93.64
2023-03-19T07:54:14.486Z,93.24
2023-03-19T07:56:41.338Z,93.27
2023-03-19T07:59:08.198Z,92.85
2023-03-19T08:01:35.530Z,92.96
2023-03-19T08:04:02.537Z,93.04
2023-03-19T08:06:29.754Z,93.28
2023-03-19T08:08:56.922Z,93.18
2023-03-19T08:11:23.923Z,93.02
2023-03-19T08:13:50.826Z,93.64
2023-03-19T08:16:17.893Z,93.07
2023-03-19T08:18:44.770Z,93.53
2023-03-19T08:21:11.723Z,93.88
2023-03-19T08:23:38.718Z,93.42
2023-03-19T08:26:05.580Z,93.22
2023-03-19T08:28:32.607Z,93.34
2023-03-19T08:31:09.880Z,93.02
2023-03-19T08:33:37.204Z,93.02
2023-03-19T08:36:09.466Z,93.23
2023-03-19T08:38:36.999Z,93.47
2023-03-19T08:41:04.466Z,92.83
2023-03-19T08:43:32.713Z,93.29
2023-03-19T08:46:00.677Z,93.08
2023-03-19T08:48:28.047Z,92.77
2023-03-19T08:51:00.786Z,93.40
2023-03-19T08:53:27.945Z,93.22
2023-03-19T08:55:57.166Z,93.21
2023-03-19T08:58:24.280Z,92.89
2023-03-19T09:00:51.315Z,93.00
2023-03-19T09:03:18.318Z,92.88
2023-03-19T09:05:45.542Z,92.97
2023-03-19T09:08:12.587Z,93.05
2023-03-19T09:10:39.967Z,93.36
2023-03-19T09:13:07.120Z,93.02
2023-03-19T09:15:34.313Z,92.97
2023-03-19T09:18:01.504Z,92.91
2023-03-19T09:20:28.447Z,93.00
2023-03-19T09:22:55.617Z,93.02
2023-03-19T09:25:22.616Z,92.88
2023-03-19T09:27:49.598Z,92.78
2023-03-19T09:30:16.732Z,92.87
2023-03-19T09:32:43.829Z,92.78
2023-03-19T09:35:10.950Z,92.37
2023-03-19T09:37:38.040Z,92.52
2023-03-19T09:40:05.900Z,92.66
2023-03-19T09:43:00.788Z,92.37
2023-03-19T09:45:29.929Z,92.91
2023-03-19T09:48:01.601Z,92.63
2023-03-19T09:50:29.634Z,92.54
2023-03-19T09:53:12.943Z,92.41
2023-03-19T09:55:45.723Z,92.41
2023-03-19T09:58:21.819Z,92.31
2023-03-19T10:00:53.443Z,92.15
2023-03-19T10:03:39.208Z,92.01
2023-03-19T10:06:30.064Z,92.49
2023-03-19T10:08:57.690Z,91.99
2023-03-19T10:11:50.535Z,92.18
2023-03-19T10:14:46.350Z,92.00
2023-03-19T10:17:19.714Z,92.33
2023-03-19T10:19:58.823Z,92.37
2023-03-19T10:22:38.787Z,91.85
2023-03-19T10:25:13.711Z,91.54
2023-03-19T10:27:41.761Z,91.85
2023-03-19T10:30:17.284Z,91.76
2023-03-19T10:32:48.885Z,91.83
2023-03-19T10:35:38.930Z,91.87
2023-03-19T10:38:24.120Z,91.93
2023-03-19T10:40:59.913Z,91.83
2023-03-19T10:43:28.818Z,92.07
2023-03-19T10:45:57.519Z,91.56
2023-03-19T10:48:28.125Z,91.84
2023-03-19T10:50:59.896Z,92.38
2023-03-19T10:53:41.378Z,92.16
2023-03-19T10:56:14.140Z,92.15
2023-03-19T10:58:41.357Z,92.21
2023-03-19T11:01:12.419Z,92.59
2023-03-19T11:03:49.486Z,92.52
2023-03-19T11:06:31.333Z,92.77
2023-03-19T11:09:03.131Z,92.53
2023-03-19T11:11:37.011Z,93.10
2023-03-19T11:14:43.799Z,92.87
2023-03-19T11:17:27.634Z,93.51
2023-03-19T11:19:56.826Z,92.39
2023-03-19T11:22:41.947Z,93.25
2023-03-19T11:25:19.834Z,93.07
2023-03-19T11:28:01.275Z,93.11
2023-03-19T11:30:36.888Z,92.68
2023-03-19T11:33:38.456Z,93.58
2023-03-19T11:36:18.118Z,92.63
2023-03-19T11:39:15.769Z,93.53
2023-03-19T11:42:08.903Z,93.01
2023-03-19T11:45:13.961Z,93.89
2023-03-19T11:48:12.944Z,93.23
2023-03-19T11:51:09.980Z,93.97
2023-03-19T11:54:08.826Z,93.70
2023-03-19T11:57:10.354Z,93.53
2023-03-19T11:59:57.100Z,93.95
2023-03-19T12:02:59.213Z,93.66
2023-03-19T12:05:59.821Z,93.25
2023-03-19T12:08:59.410Z,92.70
2023-03-19T12:11:57.285Z,93.75
2023-03-19T12:14:59.251Z,92.57
2023-03-19T12:17:55.527Z,92.60
2023-03-19T12:20:51.637Z,92.84
2023-03-19T12:23:38.466Z,91.98
2023-03-19T12:26:28.149Z,92.84
2023-03-19T12:29:28.350Z,92.82
2023-03-19T12:32:36.791Z,91.91
2023-03-19T12:35:40.446Z,92.98
2023-03-19T12:38:50.701Z,91.51
2023-03-19T12:41:46.617Z,92.03
2023-03-19T12:44:39.228Z,92.10
2023-03-19T12:47:40.643Z,91.84
2023-03-19T12:50:31.728Z,92.04
2023-03-19T12:53:22.169Z,91.83
2023-03-19T12:56:15.353Z,90.67
2023-03-19T12:59:19.807Z,90.65
2023-03-19T13:02:17.454Z,90.84
2023-03-19T13:06:00.061Z,91.30
2023-03-19T13:08:57.592Z,90.70
2023-03-19T13:11:58.416Z,91.04
2023-03-19T13:14:50.146Z,89.65
2023-03-19T13:17:50.814Z,90.75
2023-03-19T13:21:03.346Z,90.13
2023-03-19T13:23:56.684Z,89.26
2023-03-19T13:26:43.693Z,90.61
2023-03-19T13:29:49.296Z,90.12
2023-03-19T13:32:55.824Z,90.25
2023-03-19T13:35:55.057Z,89.19
2023-03-19T13:39:10.357Z,89.29
2023-03-19T13:41:57.284Z,89.40
2023-03-19T13:44:49.560Z,89.06
2023-03-19T13:47:54.359Z,89.66
2023-03-19T13:50:49.506Z,88.47
2023-03-19T13:53:52.995Z,89.12
2023-03-19T13:56:40.118Z,88.52
2023-03-19T13:59:53.618Z,88.62
2023-03-19T14:02:43.131Z,88.58
2023-03-19T14:05:39.256Z,88.94
2023-03-19T14:08:39.503Z,88.89
2023-03-19T14:11:27.466Z,88.08
2023-03-19T14:14:15.766Z,88.57
2023-03-19T14:17:05.414Z,88.29
2023-03-19T14:20:06.202Z,88.33
2023-03-19T14:23:13.664Z,87.36
2023-03-19T14:26:25.272Z,87.58
2023-03-19T14:29:20.188Z,88.08
2023-03-19T14:32:12.074Z,88.30
2023-03-19T14:35:01.659Z,87.52
2023-03-19T14:38:10.673Z,88.03
2023-03-19T14:41:05.142Z,87.02
2023-03-19T14:44:00.966Z,88.08
2023-03-19T14:47:06.870Z,87.20
2023-03-19T14:50:02.617Z,87.25
2023-03-19T14:52:56.620Z,87.86
2023-03-19T14:55:53.622Z,87.40
2023-03-19T14:58:41.259Z,86.75
2023-03-19T15:01:28.286Z,87.12
2023-03-19T15:04:20.065Z,86.41
2023-03-19T15:07:14.323Z,86.69
2023-03-19T15:10:01.396Z,87.34
2023-03-19T15:13:00.143Z,86.43
2023-03-19T15:15:59.492Z,86.93
2023-03-19T15:18:47.038Z,86.87
2023-03-19T15:21:34.107Z,87.56
2023-03-19T15:24:20.938Z,86.46
2023-03-19T15:27:08.035Z,86.33
2023-03-19T15:30:03.174Z,87.21
2023-03-19T15:33:16.453Z,87.34
2023-03-19T15:36:08.150Z,87.25
2023-03-19T15:39:00.948Z,87.31
2023-03-19T15:41:51.872Z,86.48
2023-03-19T15:44:50.176Z,86.38
2023-03-19T15:47:48.583Z,87.18
2023-03-19T15:50:38.857Z,86.58
2023-03-19T15:53:39.941Z,87.54
2023-03-19T15:56:27.810Z,86.70
2023-03-19T15:59:17.348Z,86.63
2023-03-19T16:02:04.327Z,86.82
2023-03-19T16:05:18.339Z,87.25
2023-03-19T16:08:04.672Z,87.69
2023-03-19T16:11:00.173Z,87.60
2023-03-19T16:13:52.723Z,87.58
2023-03-19T16:16:42.245Z,87.58
2023-03-19T16:19:52.784Z,87.57
2023-03-19T16:22:50.514Z,87.59
2023-03-19T16:25:39.283Z,87.84
2023-03-19T16:28:35.493Z,87.57
2023-03-19T16:31:22.459Z,87.71
2023-03-19T16:34:11.299Z,87.87
2023-03-19T16:36:58.176Z,88.07
2023-03-19T16:39:51.012Z,87.88
2023-03-19T16:42:52.937Z,87.97
2023-03-19T16:45:39.996Z,87.48
2023-03-19T16:48:28.509Z,88.04
2023-03-19T16:51:17.931Z,87.53
2023-03-19T16:54:06.251Z,88.06
2023-03-19T16:56:53.426Z,88.20
2023-03-19T16:59:49.685Z,88.09
2023-03-19T17:02:38.034Z,87.52
2023-03-19T17:05:33.500Z,88.09
2023-03-19T17:08:20.450Z,88.26
2023-03-19T17:11:13.299Z,88.57
2023-03-19T17:14:00.242Z,88.17
2023-03-19T17:16:48.245Z,88.71
2023-03-19T17:19:39.063Z,88.35
2023-03-19T17:22:25.910Z,88.67
2023-03-19T17:25:13.266Z,88.55
2023-03-19T17:28:00.276Z,89.07
2023-03-19T17:30:47.193Z,89.10
2023-03-19T17:33:41.413Z,88.81
2023-03-19T17:36:30.109Z,88.92
2023-03-19T17:39:17.156Z,88.72
2023-03-19T17:42:04.532Z,89.07
2023-03-19T17:44:51.428Z,88.98
2023-03-19T17:47:38.940Z,89.27
2023-03-19T17:50:26.202Z,89.21
2023-03-19T17:53:13.303Z,89.26
2023-03-19T17:56:00.631Z,89.18
2023-03-19T17:58:50.183Z,89.07
2023-03-19T18:01:41.152Z,89.68
2023-03-19T18:04:33.647Z,89.54
2023-03-19T18:07:20.709Z,89.91
2023-03-19T18:10:07.647Z,89.43
2023-03-19T18:12:54.715Z,89.55
2023-03-19T18:15:42.595Z,89.65
2023-03-19T18:18:38.956Z,90.00
2023-03-19T18:21:26.111Z,90.08
2023-03-19T18:24:12.954Z,89.71
2023-03-19T18:26:59.826Z,89.95
2023-03-19T18:29:46.642Z,89.70
2023-03-19T18:32:50.687Z,89.97
2023-03-19T18:35:50.532Z,90.31
2023-03-19T18:38:43.134Z,89.59
2023-03-19T18:41:37.049Z,90.46
2023-03-19T18:44:25.430Z,90.74
2023-03-19T18:47:12.271Z,90.54
2023-03-19T18:49:59.284Z,90.58
2023-03-19T18:52:46.114Z,90.71
2023-03-19T18:55:33.714Z,90.26
2023-03-19T18:58:22.750Z,90.48
2023-03-19T19:01:11.179Z,91.07
2023-03-19T19:03:58.097Z,91.06
2023-03-19T19:06:48.447Z,90.61
2023-03-19T19:09:35.295Z,91.26
2023-03-19T19:12:22.087Z,91.41
2023-03-19T19:15:09.045Z,91.20
2023-03-19T19:17:55.954Z,91.07
2023-03-19T19:20:45.247Z,91.48
2023-03-19T19:23:32.300Z,90.97
2023-03-19T19:26:19.457Z,91.37
2023-03-19T19:29:06.509Z,91.49
2023-03-19T19:31:54.583Z,91.44
2023-03-19T19:34:41.730Z,91.55
2023-03-19T19:37:35.782Z,91.84
2023-03-19T19:40:22.983Z,92.16
2023-03-19T19:43:12.382Z,91.93
2023-03-19T19:45:59.426Z,92.11
2023-03-19T19:48:49.113Z,91.79
2023-03-19T19:51:47.526Z,91.95
2023-03-19T19:54:34.408Z,92.33
2023-03-19T19:57:21.237Z,92.41
2023-03-19T20:00:09.551Z,92.07
2023-03-19T20:02:59.266Z,92.73
2023-03-19T20:05:49.121Z,92.59
2023-03-19T20:08:36.874Z,92.79
2023-03-19T20:11:31.892Z,92.36
2023-03-19T20:14:18.871Z,92.03
2023-03-19T20:17:05.770Z,92.95
2023-03-19T20:19:52.764Z,92.72
2023-03-19T20:22:39.798Z,93.30
2023-03-19T20:25:27.126Z,92.73
2023-03-19T20:28:16.958Z,92.44
2023-03-19T20:31:04.028Z,93.33
2023-03-19T20:33:51.633Z,93.28
2023-03-19T20:36:38.599Z,93.14
2023-03-19T20:39:25.492Z,92.97
2023-03-19T20:42:12.769Z,92.99
2023-03-19T20:44:59.800Z,93.67
2023-03-19T20:47:47.073Z,93.52
2023-03-19T20:50:48.889Z,93.38
2023-03-19T20:53:35.879Z,93.67
2023-03-19T20:56:23.289Z,94.08
2023-03-19T20:59:10.370Z,93.29
2023-03-19T21:01:57.358Z,93.37
2023-03-19T21:04:44.249Z,94.25
2023-03-19T21:07:47.093Z,93.41
2023-03-19T21:10:44.115Z,93.51
2023-03-19T21:13:36.909Z,94.10
2023-03-19T21:16:23.904Z,93.81
2023-03-19T21:19:10.900Z,94.39
2023-03-19T21:21:58.068Z,94.02
2023-03-19T21:24:44.902Z,94.28
2023-03-19T21:27:43.056Z,93.97
2023-03-19T21:30:36.150Z,94.06
2023-03-19T21:33:23.006Z,94.19
2023-03-19T21:36:10.644Z,94.89
2023-03-19T21:38:57.488Z,94.53
2023-03-19T21:41:51.017Z,94.49
2023-03-19T21:44:41.923Z,94.79
2023-03-19T21:47:39.201Z,94.66
2023-03-19T21:50:26.610Z,95.15
2023-03-19T21:53:13.558Z,94.37
2023-03-19T21:56:00.522Z,95.28
2023-03-19T21:58:53.820Z,94.80
2023-03-19T22:01:44.175Z,95.13
2023-03-19T22:04:31.357Z,94.85
2023-03-19T22:07:18.285Z,95.52
2023-03-19T22:10:05.126Z,95.33
2023-03-19T22:12:54.449Z,94.77
2023-03-19T22:15:49.690Z,95.51
2023-03-19T22:18:36.796Z,95.72
2023-03-19T22:21:23.727Z,95.07
2023-03-19T22:24:11.818Z,95.06
2023-03-19T22:27:01.581Z,95.49
2023-03-19T22:29:51.159Z,95.50
2023-03-19T22:32:38.936Z,95.46
2023-03-19T22:35:26.257Z,95.63
2023-03-19T22:38:13.169Z,95.11
2023-03-19T22:41:00.292Z,95.79
2023-03-19T22:43:58.178Z,95.85
2023-03-19T22:46:45.647Z,95.55
2023-03-19T22:49:35.282Z,96.10
2023-03-19T22:52:22.351Z,96.06
2023-03-19T22:55:09.253Z,95.67
2023-03-19T22:57:56.247Z,95.92
2023-03-19T23:00:43.386Z,96.19
2023-03-19T23:03:38.330Z,96.30
2023-03-19T23:06:31.142Z,96.04
2023-03-19T23:09:18.459Z,95.87
2023-03-19T23:12:05.439Z,95.41
2023-03-19T23:14:52.396Z,96.07
2023-03-19T23:17:39.727Z,96.40
2023-03-19T23:20:32.381Z,96.23
2023-03-19T23:23:19.254Z,95.80
2023-03-19T23:26:07.124Z,96.19
2023-03-19T23:28:54.768Z,96.56
2023-03-19T23:31:42.230Z,96.07
2023-03-19T23:34:42.484Z,96.69
2023-03-19T23:37:36.829Z,96.42
2023-03-19T23:40:24.326Z,96.05
2023-03-19T23:43:14.322Z,95.94
2023-03-19T23:46:03.697Z,96.33
2023-03-19T23:49:00.461Z,95.96
2023-03-19T23:51:47.588Z,95.89
2023-03-19T23:54:55.004Z,96.65
2023-03-19T23:57:44.306Z,96.17
